METAR AND TAF INFORMATION
METAR FOR WIOO
ADDS - METARS form results

(0408 UTC 28 February 2021)
Data provider http://aviationweather.gov/metar/data/
 
METAR text: WIOO 280330Z 11003KT 9999 FEW012 31/22 Q1011 NOSIG
Conditions at: WIOO (PONTIANAK/SUPADI, ID) observed 0330 UTC 28 February 2021
Temperature: 31.0°C (88°F)
Dewpoint: 22.0°C (72°F) [RH = 59%]
Pressure (altimeter): 29.85 inches Hg (1011.0 mb)
Winds: from the ESE (110 degrees) at 3 MPH (3 knots; 1.5 m/s)
Visibility: 6 or more miles (10+ km)
Ceiling: at least 12,000 feet AGL
Clouds: few clouds at 1200 feet AGL
Weather: no significant weather observed at this time

 AIRPORT MAP

 RUNWAY INFORMATION
Runway 15 Runway length 7380 ft Runway width 98 ft
Runway elevation 3 ft Runway displaced threshold 0 ft Runway heading 158
Runway 33 Runway length 7380 ft Runway width 98 ft
Runway elevation 10 ft Runway displaced threshold 0 ft Runway heading 338

 AIRPORT FREQUENCIES
Type APP Name PONTIANAK Frequency 119 MHZ
Type ATIS Name ATIS Frequency 127.4 MHZ
Type INFO Name PONTIAK IN Frequency 895.7 MHZ
Type TWR Name TWR Frequency 118.3 MHZ

 AIRPORT NEAR NAVIGATION AIDS
Type NDB Name Pontianak Frequency 245 KHZ
Type VOR-DME Name Pontianak Frequency 113200 KHZ



Powered by Virtual Airlines Manager [v2.6.2]